Cincinnati, OH (45215)

1:54 PM EST on February 08, 2016 (GMT -0500)
Pleasant Ridge, Gloss Avenue | | Change Station
CLOSE
Current Station
Personal Weather Station
Location: Cincinnati, OH
Elevation: 755 ft
Nearby Weather Stations
Active Advisory: Winter Weather Advisory

Elev 755 ft 39.18 °N, 84.43 °W | Updated 10 seconds ago

Overcast
Overcast
40.8 °F
Feels Like 41 °F
N
0.4
Wind Variable Wind from NNW
Gusts 2.5 mph

Today
High -- | Low -- °F
--% Chance of Precip.
Yesterday
High -- | Low -- °F
Precip. -- in
Pressure 29.66 in
Visibility 10.0 miles
Clouds Few 2500 ft
Mostly Cloudy 3600 ft
Overcast 4500 ft
Windchill 41 °F
Dew Point 34 °F
Humidity 77%
Rainfall 0.20 in
Snow Depth Not available.
7:38 AM 6:06 PM
New Moon, 0% visible
METAR KLUK 081753Z 27007KT 10SM FEW025 BKN036 OVC045 04/00 A2966 RMK AO2 SLP044 60008 T00390000 10039 20011 58007
Pressure 29.66 in
Visibility 10.0 miles
Clouds Few 2500 ft
Mostly Cloudy 3600 ft
Overcast 4500 ft
Windchill 41 °F
Dew Point 34 °F
Humidity 77%
Rainfall 0.20 in
Snow Depth Not available.
7:38 AM 6:06 PM
New Moon, 0% visible
METAR KLUK 081753Z 27007KT 10SM FEW025 BKN036 OVC045 04/00 A2966 RMK AO2 SLP044 60008 T00390000 10039 20011 58007

10-Day Weather Forecast

Almanac

Astronomy

Feb. 08, 2016 Rise Set
Actual Time
Civil Twilight
Nautical Twilight
Astronomical Twilight
Moon
Length of Visible Light
Length of Day
Tomorrow will be .
, % of the Moon is Illuminated

Today's Extremes

State Highs State Lows

Community

WunderPhotos

Upload Photos

1,891,481 photos uploaded!

WunderBlog® & News

Nearby

Air Quality

  Air Quality AQ Index Pollutant
Not available.

Snow Depth

Station Depth Elevation

Earthquake Activity

City Distance Mag. Time & Date
Minimum magnitude displayed is 2.5.

Coastal Water Temperatures

Place Temperature

Stations

Nearby Weather Stations

Station Location Temp. Windchill Dew Point Humidity Wind Precip. Elev Updated Type
                   

Watches & Warnings

Winter Weather Advisory
Issued: 11:48 AM EST Feb. 8, 2016 – National Weather Service

... Winter Weather Advisory remains in effect from 6 PM this
evening to 6 am EST Wednesday...

* hazard types... snow showers.

* Accumulations... snow accumulation of 2 to 4 inches.

* Timing... rain and snow showers will transition over to all snow
showers this evening. Occasional snow showers will then continue
tonight through Tuesday night.

* Impacts... travel difficulties are expected due to reduced
visibilities and snow accumulations.

Precautionary/preparedness actions...

Remember... a Winter Weather Advisory for snow means that periods
of snow will cause primarily travel difficulties. Be prepared for
snow covered roads and limited visibilities... and use caution
while driving. Stay tuned to NOAA Weather Radio or your favorite
source of information for the latest updates. Additional details
can also be found at www.Weather.Gov/iln as well as on our
facebook and twitter pages.